createdAt,value
2022-09-20T00:01:08.195Z,1.30
2022-09-20T00:03:40.057Z,1.48
2022-09-20T00:06:09.457Z,1.40
2022-09-20T00:08:36.377Z,1.42
2022-09-20T00:11:15.732Z,1.15
2022-09-20T00:13:44.365Z,1.60
2022-09-20T00:16:14.019Z,1.48
2022-09-20T00:18:41.005Z,1.60
2022-09-20T00:21:12.423Z,1.40
2022-09-20T00:23:39.024Z,1.67
2022-09-20T00:26:05.789Z,1.55
2022-09-20T00:28:34.597Z,1.55
2022-09-20T00:31:01.473Z,1.42
2022-09-20T00:33:46.665Z,1.73
2022-09-20T00:36:13.336Z,1.90
2022-09-20T00:38:39.995Z,1.75
2022-09-20T00:41:06.660Z,1.48
2022-09-20T00:43:38.172Z,1.63
2022-09-20T00:46:06.772Z,1.60
2022-09-20T00:48:34.107Z,1.70
2022-09-20T00:51:09.249Z,2.17
2022-09-20T00:53:40.798Z,1.65
2022-09-20T00:56:12.989Z,1.80
2022-09-20T00:58:47.026Z,1.70
2022-09-20T01:01:13.861Z,1.90
2022-09-20T01:03:42.216Z,2.00
2022-09-20T01:06:13.948Z,2.30
2022-09-20T01:08:44.560Z,2.20
2022-09-20T01:11:11.277Z,2.70
2022-09-20T01:13:37.909Z,2.50
2022-09-20T01:16:06.421Z,2.40
2022-09-20T01:18:36.241Z,2.72
2022-09-20T01:21:05.347Z,2.80
2022-09-20T01:24:09.706Z,2.45
2022-09-20T01:26:54.575Z,2.67
2022-09-20T01:29:31.216Z,2.85
2022-09-20T01:32:01.967Z,2.75
2022-09-20T01:34:47.073Z,2.75
2022-09-20T01:37:16.865Z,3.03
2022-09-20T01:39:49.432Z,2.83
2022-09-20T01:42:16.270Z,2.60
2022-09-20T01:44:46.258Z,2.88
2022-09-20T01:47:25.110Z,2.60
2022-09-20T01:50:10.872Z,2.67
2022-09-20T01:52:55.847Z,2.80
2022-09-20T01:55:31.631Z,2.38
2022-09-20T01:58:10.462Z,2.38
2022-09-20T02:00:58.981Z,2.60
2022-09-20T02:03:55.403Z,2.90
2022-09-20T02:06:25.069Z,2.47
2022-09-20T02:09:06.837Z,2.60
2022-09-20T02:11:42.710Z,2.55
2022-09-20T02:14:33.852Z,2.58
2022-09-20T02:17:13.953Z,2.70
2022-09-20T02:19:57.283Z,2.78
2022-09-20T02:22:51.556Z,2.60
2022-09-20T02:25:45.401Z,2.40
2022-09-20T02:28:24.540Z,2.00
2022-09-20T02:31:11.556Z,2.70
2022-09-20T02:33:38.117Z,2.25
2022-09-20T02:36:22.818Z,2.55
2022-09-20T02:39:10.812Z,2.50
2022-09-20T02:42:19.393Z,2.35
2022-09-20T02:45:09.778Z,2.40
2022-09-20T02:47:39.408Z,2.40
2022-09-20T02:50:09.118Z,2.58
2022-09-20T02:53:00.540Z,2.30
2022-09-20T02:55:47.142Z,2.60
2022-09-20T02:58:49.222Z,3.03
2022-09-20T03:01:24.852Z,3.60
2022-09-20T03:04:09.368Z,3.28
2022-09-20T03:06:48.433Z,3.70
2022-09-20T03:09:49.200Z,3.30
2022-09-20T03:12:38.214Z,3.38
2022-09-20T03:15:25.358Z,3.35
2022-09-20T03:18:07.507Z,2.97
2022-09-20T03:20:52.594Z,2.90
2022-09-20T03:23:47.104Z,3.47
2022-09-20T03:26:31.895Z,2.80
2022-09-20T03:29:08.630Z,2.85
2022-09-20T03:31:50.812Z,2.60
2022-09-20T03:34:46.585Z,2.88
2022-09-20T03:37:50.783Z,2.88
2022-09-20T03:40:17.810Z,2.83
2022-09-20T03:42:51.902Z,2.35
2022-09-20T03:45:53.354Z,2.60
2022-09-20T03:48:58.952Z,2.85
2022-09-20T03:51:39.190Z,2.80
2022-09-20T03:54:31.326Z,2.80
2022-09-20T03:57:10.081Z,2.75
2022-09-20T03:59:55.460Z,2.78
2022-09-20T04:02:29.280Z,2.78
2022-09-20T04:05:01.414Z,2.72
2022-09-20T04:07:50.014Z,2.92
2022-09-20T04:10:46.965Z,2.90
2022-09-20T04:13:35.213Z,3.03
2022-09-20T04:16:01.795Z,2.70
2022-09-20T04:18:37.791Z,2.83
2022-09-20T04:21:14.172Z,2.28
2022-09-20T04:23:49.769Z,2.42
2022-09-20T04:26:26.012Z,2.67
2022-09-20T04:29:14.414Z,2.70
2022-09-20T04:31:54.093Z,2.33
2022-09-20T04:34:52.983Z,2.58
2022-09-20T04:37:41.142Z,2.95
2022-09-20T04:40:42.311Z,2.72
2022-09-20T04:43:33.966Z,2.33
2022-09-20T04:46:38.363Z,2.50
2022-09-20T04:49:23.228Z,2.63
2022-09-20T04:52:11.112Z,2.97
2022-09-20T04:54:44.272Z,3.30
2022-09-20T04:57:34.395Z,3.40
2022-09-20T05:00:11.210Z,2.95
2022-09-20T05:02:59.831Z,3.20
2022-09-20T05:06:00.621Z,4.20
2022-09-20T05:08:59.218Z,3.97
2022-09-20T05:11:30.657Z,3.35
2022-09-20T05:14:28.738Z,3.40
2022-09-20T05:17:07.169Z,3.42
2022-09-20T05:19:56.025Z,3.70
2022-09-20T05:22:33.706Z,3.45
2022-09-20T05:25:19.039Z,3.67
2022-09-20T05:27:57.035Z,3.38
2022-09-20T05:30:45.546Z,3.25
2022-09-20T05:33:40.331Z,3.10
2022-09-20T05:36:33.687Z,3.60
2022-09-20T05:39:19.149Z,3.38
2022-09-20T05:41:56.446Z,3.88
2022-09-20T05:44:50.126Z,3.70
2022-09-20T05:47:23.426Z,3.65
2022-09-20T05:50:19.446Z,3.92
2022-09-20T05:53:17.416Z,3.95
2022-09-20T05:56:05.126Z,4.60
2022-09-20T05:59:07.441Z,3.83
2022-09-20T06:02:05.465Z,3.80
2022-09-20T06:04:45.371Z,4.07
2022-09-20T06:07:31.692Z,4.45
2022-09-20T06:10:31.101Z,3.90
2022-09-20T06:13:09.348Z,4.43
2022-09-20T06:16:02.351Z,4.28
2022-09-20T06:19:00.095Z,3.83
2022-09-20T06:21:50.782Z,3.78
2022-09-20T06:24:43.447Z,4.03
2022-09-20T06:27:19.301Z,4.03
2022-09-20T06:29:53.300Z,4.30
2022-09-20T06:32:19.990Z,4.75
2022-09-20T06:34:48.174Z,4.88
2022-09-20T06:37:45.773Z,4.90
2022-09-20T06:40:46.253Z,5.68
2022-09-20T06:43:14.529Z,5.15
2022-09-20T06:45:42.971Z,5.38
2022-09-20T06:48:11.674Z,4.93
2022-09-20T06:50:38.747Z,5.40
2022-09-20T06:53:06.582Z,5.20
2022-09-20T06:55:42.300Z,5.80
2022-09-20T06:58:09.795Z,5.25
2022-09-20T07:00:37.055Z,5.03
2022-09-20T07:03:04.060Z,5.60
2022-09-20T07:05:30.817Z,5.40
2022-09-20T07:07:58.748Z,5.60
2022-09-20T07:10:30.225Z,5.65
2022-09-20T07:13:00.843Z,4.97
2022-09-20T07:15:28.813Z,5.10
2022-09-20T07:17:55.618Z,6.55
2022-09-20T07:20:22.988Z,5.68
2022-09-20T07:22:49.999Z,5.20
2022-09-20T07:25:18.229Z,5.70
2022-09-20T07:27:46.463Z,5.78
2022-09-20T07:30:17.833Z,5.40
2022-09-20T07:32:44.514Z,6.25
2022-09-20T07:35:12.333Z,5.30
2022-09-20T07:37:41.367Z,5.35
2022-09-20T07:40:10.510Z,5.47
2022-09-20T07:42:37.469Z,5.43
2022-09-20T07:45:04.637Z,5.80
2022-09-20T07:47:35.554Z,6.30
2022-09-20T07:50:03.417Z,5.80
2022-09-20T07:52:30.185Z,5.80
2022-09-20T07:54:56.816Z,4.80
2022-09-20T07:57:23.669Z,4.90
2022-09-20T07:59:50.297Z,5.18
2022-09-20T08:02:17.087Z,5.07
2022-09-20T08:04:44.257Z,4.90
2022-09-20T08:07:12.538Z,4.30
2022-09-20T08:09:39.241Z,4.38
2022-09-20T08:14:53.812Z,4.10
2022-09-20T08:17:20.510Z,3.75
2022-09-20T08:19:47.813Z,3.85
2022-09-20T08:22:14.488Z,3.88
2022-09-20T08:24:41.130Z,3.95
2022-09-20T08:27:07.745Z,3.90
2022-09-20T08:29:34.430Z,3.50
2022-09-20T08:32:02.237Z,3.40
2022-09-20T08:34:28.967Z,3.20
2022-09-20T08:36:56.630Z,3.30
2022-09-20T08:42:12.451Z,3.28
2022-09-20T08:44:57.746Z,2.95
2022-09-20T08:47:33.196Z,3.45
2022-09-20T08:50:08.885Z,2.60
2022-09-20T08:52:39.872Z,2.83
2022-09-20T08:55:22.312Z,2.13
2022-09-20T08:57:52.058Z,2.00
2022-09-20T09:00:22.486Z,2.13
2022-09-20T09:02:52.992Z,1.95
2022-09-20T09:05:37.065Z,1.83
2022-09-20T09:08:12.383Z,2.15
2022-09-20T09:10:43.530Z,2.05
2022-09-20T09:13:21.975Z,2.40
2022-09-20T09:15:55.263Z,2.08
2022-09-20T09:18:21.949Z,1.98
2022-09-20T09:20:51.244Z,1.67
2022-09-20T09:23:25.459Z,1.50
2022-09-20T09:25:54.658Z,1.52
2022-09-20T09:28:29.429Z,1.15
2022-09-20T09:31:22.370Z,1.17
2022-09-20T09:33:49.397Z,1.40
2022-09-20T09:36:20.446Z,1.20
2022-09-20T09:38:47.677Z,1.23
2022-09-20T09:41:29.922Z,1.10
2022-09-20T09:46:33.133Z,0.85
2022-09-20T09:52:04.938Z,1.08
2022-09-20T09:54:48.976Z,1.08
2022-09-20T09:57:33.862Z,0.98
2022-09-20T10:00:21.962Z,0.80
2022-09-20T10:03:01.850Z,1.17
2022-09-20T10:05:40.684Z,0.80
2022-09-20T10:08:26.838Z,1.05
2022-09-20T10:11:10.541Z,1.08
2022-09-20T10:13:49.559Z,0.80
2022-09-20T10:16:29.538Z,1.08
2022-09-20T10:19:40.833Z,0.80
2022-09-20T10:23:14.687Z,0.90
2022-09-20T10:25:50.936Z,1.30
2022-09-20T10:28:50.724Z,0.82
2022-09-20T10:31:45.673Z,0.88
2022-09-20T10:34:49.060Z,0.75
2022-09-20T10:37:33.446Z,0.90
2022-09-20T10:40:21.261Z,0.77
2022-09-20T10:43:16.393Z,0.95
2022-09-20T10:46:30.368Z,0.60
2022-09-20T10:49:26.819Z,1.25
2022-09-20T10:52:00.861Z,0.85
2022-09-20T10:54:33.705Z,0.73
2022-09-20T10:57:42.108Z,1.00
2022-09-20T11:00:23.932Z,1.00
2022-09-20T11:03:08.754Z,1.00
2022-09-20T11:05:56.518Z,1.48
2022-09-20T11:08:28.506Z,1.10
2022-09-20T11:11:02.900Z,0.90
2022-09-20T11:13:58.322Z,1.33
2022-09-20T11:16:43.370Z,0.95
2022-09-20T11:19:34.067Z,1.20
2022-09-20T11:22:06.397Z,1.20
2022-09-20T11:24:38.982Z,0.98
2022-09-20T11:27:25.653Z,1.00
2022-09-20T11:30:02.044Z,0.82
2022-09-20T11:32:43.305Z,0.80
2022-09-20T11:35:14.865Z,1.00
2022-09-20T11:37:48.985Z,1.10
2022-09-20T11:40:48.221Z,1.70
2022-09-20T11:43:18.387Z,1.00
2022-09-20T11:45:47.909Z,1.13
2022-09-20T11:48:21.877Z,1.40
2022-09-20T11:51:13.205Z,0.98
2022-09-20T11:53:58.694Z,0.75
2022-09-20T11:56:29.041Z,0.80
2022-09-20T11:59:02.694Z,1.17
2022-09-20T12:01:40.980Z,1.00
2022-09-20T12:04:34.669Z,1.00
2022-09-20T12:07:17.866Z,0.93
2022-09-20T12:09:59.014Z,1.05
2022-09-20T12:12:30.917Z,1.10
2022-09-20T12:15:00.771Z,0.90
2022-09-20T12:17:45.629Z,1.08
2022-09-20T12:20:42.552Z,0.75
2022-09-20T12:23:43.358Z,0.88
2022-09-20T12:26:20.530Z,0.77
2022-09-20T12:28:51.081Z,0.60
2022-09-20T12:31:29.529Z,0.60
2022-09-20T12:34:10.045Z,0.60
2022-09-20T12:36:39.368Z,0.70
2022-09-20T12:39:12.155Z,0.50
2022-09-20T12:41:50.024Z,0.75
2022-09-20T12:44:26.553Z,0.70
2022-09-20T12:46:57.768Z,0.65
2022-09-20T12:50:04.466Z,1.00
2022-09-20T12:52:52.137Z,0.50
2022-09-20T12:55:41.012Z,0.70
2022-09-20T12:58:14.174Z,0.60
2022-09-20T13:00:57.652Z,0.60
2022-09-20T13:03:37.781Z,0.55
2022-09-20T13:06:08.853Z,0.50
2022-09-20T13:08:39.936Z,0.63
2022-09-20T13:11:06.793Z,0.60
2022-09-20T13:14:01.586Z,0.57
2022-09-20T13:16:40.863Z,0.80
2022-09-20T13:19:19.686Z,1.02
2022-09-20T13:21:53.318Z,0.70
2022-09-20T13:24:20.909Z,0.70
2022-09-20T13:26:49.944Z,0.60
2022-09-20T13:29:33.251Z,0.80
2022-09-20T13:32:24.204Z,0.63
2022-09-20T13:35:12.216Z,0.70
2022-09-20T13:37:44.781Z,0.82
2022-09-20T13:40:39.719Z,0.90
2022-09-20T13:43:24.461Z,0.52
2022-09-20T13:45:56.685Z,0.77
2022-09-20T13:48:28.271Z,1.10
2022-09-20T13:50:56.406Z,1.38
2022-09-20T13:53:40.457Z,0.95
2022-09-20T13:56:20.256Z,0.80
2022-09-20T13:58:48.266Z,0.70
2022-09-20T14:01:20.831Z,0.82
2022-09-20T14:03:48.056Z,0.60
2022-09-20T14:06:16.132Z,0.85
2022-09-20T14:08:45.961Z,0.82
2022-09-20T14:11:32.358Z,0.70
2022-09-20T14:14:02.467Z,0.82
2022-09-20T14:16:38.269Z,0.93
2022-09-20T14:19:08.080Z,0.93
2022-09-20T14:21:36.709Z,0.60
2022-09-20T14:24:23.286Z,0.80
2022-09-20T14:27:22.057Z,0.95
2022-09-20T14:29:54.198Z,0.70
2022-09-20T14:32:20.837Z,0.85
2022-09-20T14:35:01.972Z,0.95
2022-09-20T14:37:43.764Z,0.82
2022-09-20T14:40:21.750Z,0.80
2022-09-20T14:43:20.897Z,0.73
2022-09-20T14:45:54.392Z,0.80
2022-09-20T14:48:21.435Z,0.85
2022-09-20T14:51:12.517Z,0.95
2022-09-20T14:53:39.219Z,0.80
2022-09-20T14:56:05.893Z,0.70
2022-09-20T14:58:34.002Z,0.77
2022-09-20T15:01:24.129Z,0.90
2022-09-20T15:03:51.693Z,1.25
2022-09-20T15:06:19.100Z,1.20
2022-09-20T15:08:46.888Z,0.98
2022-09-20T15:11:20.517Z,0.90
2022-09-20T15:13:47.173Z,0.70
2022-09-20T15:16:17.652Z,1.10
2022-09-20T15:18:44.891Z,0.73
2022-09-20T15:21:12.082Z,0.90
2022-09-20T15:23:40.003Z,0.93
2022-09-20T15:26:07.817Z,1.15
2022-09-20T15:28:35.144Z,0.90
2022-09-20T15:31:02.238Z,1.00
2022-09-20T15:33:32.024Z,0.85
2022-09-20T15:35:59.678Z,0.90
2022-09-20T15:38:27.078Z,0.98
2022-09-20T15:40:54.231Z,1.05
2022-09-20T15:43:24.159Z,1.00
2022-09-20T15:46:03.110Z,0.80
2022-09-20T15:48:30.768Z,1.30
2022-09-20T15:51:05.909Z,1.38
2022-09-20T15:53:41.138Z,1.13
2022-09-20T15:56:22.984Z,1.10
2022-09-20T15:59:00.986Z,1.10
2022-09-20T16:01:42.221Z,1.63
2022-09-20T16:04:10.955Z,1.30
2022-09-20T16:06:39.228Z,1.02
2022-09-20T16:09:07.547Z,0.93
2022-09-20T16:11:34.258Z,0.90
2022-09-20T16:14:01.128Z,0.68
2022-09-20T16:16:29.951Z,1.08
2022-09-20T16:19:15.323Z,1.30
2022-09-20T16:21:44.225Z,0.95
2022-09-20T16:24:14.355Z,0.90
2022-09-20T16:26:41.560Z,1.08
2022-09-20T16:29:08.618Z,1.20
2022-09-20T16:31:47.331Z,1.30
2022-09-20T16:34:22.721Z,1.55
2022-09-20T16:36:51.881Z,1.42
2022-09-20T16:39:20.226Z,1.17
2022-09-20T16:41:48.962Z,1.30
2022-09-20T16:44:16.059Z,1.23
2022-09-20T16:46:45.126Z,1.17
2022-09-20T16:49:13.163Z,1.20
2022-09-20T16:51:42.571Z,1.40
2022-09-20T16:54:14.948Z,1.50
2022-09-20T16:56:44.626Z,1.30
2022-09-20T16:59:12.554Z,1.58
2022-09-20T17:01:40.427Z,1.88
2022-09-20T17:04:08.348Z,1.95
2022-09-20T17:06:37.148Z,1.60
2022-09-20T17:09:05.765Z,1.95
2022-09-20T17:11:37.399Z,2.22
2022-09-20T17:14:05.090Z,2.00
2022-09-20T17:16:37.083Z,2.55
2022-09-20T17:19:09.176Z,2.20
2022-09-20T17:21:38.813Z,2.20
2022-09-20T17:24:07.906Z,2.00
2022-09-20T17:26:40.306Z,2.65
2022-09-20T17:29:09.857Z,2.50
2022-09-20T17:31:39.574Z,1.92
2022-09-20T17:34:09.552Z,2.47
2022-09-20T17:36:44.618Z,2.30
2022-09-20T17:39:13.018Z,2.40
2022-09-20T17:41:46.904Z,2.08
2022-09-20T17:44:14.837Z,2.47
2022-09-20T17:46:51.484Z,2.05
2022-09-20T17:49:20.133Z,2.30
2022-09-20T17:51:49.105Z,2.17
2022-09-20T17:54:16.357Z,1.92
2022-09-20T17:56:44.920Z,2.10
2022-09-20T17:59:12.462Z,2.15
2022-09-20T18:01:40.262Z,2.63
2022-09-20T18:04:07.433Z,2.35
2022-09-20T18:06:44.274Z,1.90
2022-09-20T18:09:15.018Z,3.97
2022-09-20T18:11:48.856Z,4.22
2022-09-20T18:14:17.759Z,3.00
2022-09-20T18:16:44.401Z,2.80
2022-09-20T18:19:11.519Z,3.30
2022-09-20T18:21:39.478Z,2.70
2022-09-20T18:24:07.181Z,2.97
2022-09-20T18:26:34.913Z,2.88
2022-09-20T18:29:05.959Z,2.72
2022-09-20T18:31:37.954Z,2.72
2022-09-20T18:34:07.369Z,3.05
2022-09-20T18:36:36.394Z,2.85
2022-09-20T18:39:03.625Z,3.72
2022-09-20T18:41:34.889Z,4.55
2022-09-20T18:44:04.009Z,3.75
2022-09-20T18:46:31.246Z,4.18
2022-09-20T18:49:04.694Z,3.20
2022-09-20T18:51:35.855Z,3.13
2022-09-20T18:54:05.940Z,3.20
2022-09-20T18:56:37.349Z,3.45
2022-09-20T18:59:07.597Z,3.40
2022-09-20T19:01:37.244Z,3.10
2022-09-20T19:04:28.614Z,2.97
2022-09-20T19:07:20.231Z,2.88
2022-09-20T19:10:08.846Z,3.17
2022-09-20T19:12:53.512Z,2.53
2022-09-20T19:15:40.148Z,2.90
2022-09-20T19:18:41.286Z,3.30
2022-09-20T19:21:17.816Z,3.20
2022-09-20T19:23:50.519Z,3.72
2022-09-20T19:26:27.449Z,2.60
2022-09-20T19:28:57.403Z,3.00
2022-09-20T19:31:32.487Z,3.03
2022-09-20T19:34:03.055Z,2.90
2022-09-20T19:36:50.084Z,2.80
2022-09-20T19:39:34.514Z,3.13
2022-09-20T19:42:16.410Z,3.05
2022-09-20T19:44:52.069Z,2.88
2022-09-20T19:47:48.420Z,3.60
2022-09-20T19:50:28.023Z,3.40
2022-09-20T19:52:58.479Z,3.85
2022-09-20T19:55:25.543Z,2.53
2022-09-20T19:57:52.425Z,2.10
2022-09-20T20:00:21.115Z,1.73
2022-09-20T20:02:48.626Z,2.45
2022-09-20T20:05:18.729Z,2.22
2022-09-20T20:08:03.460Z,2.20
2022-09-20T20:10:38.867Z,2.35
2022-09-20T20:13:42.877Z,1.67
2022-09-20T20:16:16.100Z,1.73
2022-09-20T20:18:50.335Z,1.95
2022-09-20T20:21:32.324Z,2.28
2022-09-20T20:24:05.726Z,2.42
2022-09-20T20:26:32.627Z,2.35
2022-09-20T20:29:00.097Z,2.78
2022-09-20T20:31:27.226Z,2.80
2022-09-20T20:33:54.697Z,2.63
2022-09-20T20:36:21.488Z,2.80
2022-09-20T20:38:51.738Z,3.00
2022-09-20T20:41:21.707Z,2.53
2022-09-20T20:43:56.317Z,2.30
2022-09-20T20:46:23.916Z,2.65
2022-09-20T20:48:50.557Z,2.20
2022-09-20T20:51:19.685Z,2.47
2022-09-20T20:53:49.272Z,2.25
2022-09-20T20:56:28.630Z,2.30
2022-09-20T20:59:00.503Z,2.28
2022-09-20T21:01:38.460Z,2.80
2022-09-20T21:04:07.882Z,2.42
2022-09-20T21:06:36.481Z,2.72
2022-09-20T21:09:05.360Z,3.45
2022-09-20T21:11:35.615Z,2.67
2022-09-20T21:14:06.575Z,2.83
2022-09-20T21:16:38.976Z,2.60
2022-09-20T21:21:35.396Z,2.25
2022-09-20T21:24:04.479Z,2.72
2022-09-20T21:26:32.465Z,2.50
2022-09-20T21:29:01.293Z,2.35
2022-09-20T21:31:31.110Z,2.53
2022-09-20T21:33:58.468Z,2.35
2022-09-20T21:36:27.860Z,2.65
2022-09-20T21:38:54.862Z,2.20
2022-09-20T21:41:27.459Z,2.55
2022-09-20T21:43:56.280Z,2.55
2022-09-20T21:46:28.999Z,3.38
2022-09-20T21:48:57.835Z,3.75
2022-09-20T21:51:25.870Z,3.88
2022-09-20T21:53:57.486Z,3.22
2022-09-20T21:56:27.465Z,3.50
2022-09-20T21:58:54.910Z,3.38
2022-09-20T22:01:24.216Z,3.40
2022-09-20T22:03:57.422Z,2.92
2022-09-20T22:06:26.588Z,3.40
2022-09-20T22:08:58.972Z,3.30
2022-09-20T22:13:59.087Z,3.17
2022-09-20T22:16:30.874Z,3.05
2022-09-20T22:18:59.751Z,3.72
2022-09-20T22:21:32.115Z,3.00
2022-09-20T22:26:37.990Z,2.92
2022-09-20T22:29:06.526Z,3.05
2022-09-20T22:31:36.595Z,3.00
2022-09-20T22:34:06.544Z,3.08
2022-09-20T22:36:39.174Z,3.08
2022-09-20T22:41:37.893Z,2.80
2022-09-20T22:44:05.976Z,3.15
2022-09-20T22:46:34.576Z,3.08
2022-09-20T22:49:01.495Z,3.33
2022-09-20T22:51:35.520Z,2.97
2022-09-20T22:54:10.783Z,2.75
2022-09-20T22:56:39.376Z,3.15
2022-09-20T22:59:12.167Z,3.15
2022-09-20T23:01:43.091Z,3.00
2022-09-20T23:04:13.486Z,2.83
2022-09-20T23:06:46.940Z,2.80
2022-09-20T23:09:15.507Z,3.40
2022-09-20T23:11:43.001Z,2.70
2022-09-20T23:14:15.900Z,3.33
2022-09-20T23:16:43.713Z,2.70
2022-09-20T23:19:11.831Z,3.30
2022-09-20T23:21:41.578Z,2.78
2022-09-20T23:24:10.048Z,3.03
2022-09-20T23:26:38.391Z,3.47
2022-09-20T23:29:08.193Z,3.08
2022-09-20T23:31:37.392Z,3.13
2022-09-20T23:34:06.529Z,3.17
2022-09-20T23:36:36.367Z,2.92
2022-09-20T23:39:03.229Z,3.00
2022-09-20T23:41:30.582Z,2.35
2022-09-20T23:43:57.867Z,3.00
2022-09-20T23:46:26.707Z,2.83
2022-09-20T23:48:53.880Z,2.42
2022-09-20T23:51:23.701Z,2.35
2022-09-20T23:53:52.620Z,2.47
2022-09-20T23:56:21.623Z,2.20
2022-09-20T23:58:48.667Z,2.60
